Time;durP1;ratioP1;P1;durP2;ratioP2;P2;SDS_P1;SDS_P2;PMS_P1;PMS_P2;Temp;Humidity;BMP_temperature;BMP_pressure;BME280_temperature;BME280_humidity;BME280_pressure;Samples;Min_cycle;Max_cycle;Signal;HPM_P1;HPM_P2
2022/09/02 00:00:53;;;;;;;4.00;1.95;;;;;;;14.13;72.40;101408.41;1939235;29;20074;-77
2022/09/02 00:01:50;;;;;;;3.67;1.83;;;;;;;14.14;71.00;101410.09;1939156;29;20023;-78
2022/09/02 00:02:49;;;;;;;3.08;1.73;;;;;;;14.13;71.69;101408.41;1931226;29;20448;-77
2022/09/02 00:03:46;;;;;;;3.15;1.88;;;;;;;14.13;71.23;101410.19;1931080;29;20524;-77
2022/09/02 00:04:44;;;;;;;6.35;1.90;;;;;;;14.13;71.64;101408.41;1938376;29;20035;-77
2022/09/02 00:05:41;;;;;;;2.88;1.90;;;;;;;14.10;71.02;101411.16;1939265;29;20032;-77
2022/09/02 00:06:41;;;;;;;2.92;1.63;;;;;;;14.10;70.90;101408.53;1939194;29;20075;-78
2022/09/02 00:07:39;;;;;;;5.45;2.00;;;;;;;14.01;72.65;101409.00;1939164;29;20082;-78
2022/09/02 00:08:38;;;;;;;3.35;1.80;;;;;;;14.00;72.45;101402.06;1939189;29;20043;-77
2022/09/02 00:09:37;;;;;;;3.13;1.85;;;;;;;13.96;71.50;101411.84;1931248;29;20405;-77
2022/09/02 00:10:39;;;;;;;1.75;1.55;;;;;;;13.97;71.58;101407.44;1931447;29;20104;-78
2022/09/02 00:11:41;;;;;;;2.05;1.88;;;;;;;13.91;72.47;101400.72;1939173;29;20440;-77
2022/09/02 00:12:38;;;;;;;2.15;1.95;;;;;;;13.92;71.50;101398.97;1938900;29;20036;-77
2022/09/02 00:13:36;;;;;;;2.90;1.70;;;;;;;13.92;71.79;101396.34;1938622;29;20520;-77
2022/09/02 00:14:38;;;;;;;1.88;1.70;;;;;;;13.87;74.04;101400.03;1938792;29;20063;-77
2022/09/02 00:15:35;;;;;;;3.97;2.03;;;;;;;13.87;72.11;101397.41;1939138;29;20038;-78
2022/09/02 00:16:34;;;;;;;3.85;2.08;;;;;;;13.87;72.01;101396.53;1939227;29;20474;-78
2022/09/02 00:17:31;;;;;;;3.80;1.70;;;;;;;13.84;74.15;101401.94;1946085;29;20031;-79
2022/09/02 00:18:29;;;;;;;7.15;2.10;;;;;;;13.85;72.38;101396.63;1946212;29;20483;-78
2022/09/02 00:19:29;;;;;;;4.03;1.90;;;;;;;13.85;73.58;101399.25;1939404;29;20075;-78
2022/09/02 00:20:29;;;;;;;2.00;1.90;;;;;;;13.82;73.08;101403.78;1938932;29;20440;-77
2022/09/02 00:21:29;;;;;;;2.35;1.77;;;;;;;13.83;72.16;101395.00;1938692;29;20144;-76
2022/09/02 00:22:26;;;;;;;6.72;2.38;;;;;;;13.83;72.35;101392.38;1938917;29;20046;-80
2022/09/02 00:23:24;;;;;;;2.65;1.80;;;;;;;13.76;75.19;101400.50;1938634;29;20066;-77
2022/09/02 00:24:23;;;;;;;2.00;1.67;;;;;;;13.75;73.61;101390.09;1939271;29;20503;-76
2022/09/02 00:25:22;;;;;;;2.95;2.17;;;;;;;13.77;73.78;101390.88;1939398;29;20105;-77
2022/09/02 00:26:20;;;;;;;3.47;1.98;;;;;;;13.78;72.95;101397.81;1939007;29;20340;-76
2022/09/02 00:27:17;;;;;;;4.13;2.10;;;;;;;13.72;74.50;101391.09;1939154;29;20047;-77
2022/09/02 00:28:16;;;;;;;4.93;1.92;;;;;;;13.72;73.89;101392.88;1939260;29;20121;-78
2022/09/02 00:29:15;;;;;;;2.55;1.65;;;;;;;13.70;75.28;101389.47;1946332;29;20047;-78
2022/09/02 00:30:13;;;;;;;3.15;2.00;;;;;;;13.66;75.43;101386.16;1946159;28;20499;-77
2022/09/02 00:31:11;;;;;;;5.00;2.00;;;;;;;13.68;74.28;101392.16;1939614;29;20088;-77
2022/09/02 00:32:09;;;;;;;3.22;2.20;;;;;;;13.68;73.53;101391.34;1939065;29;20039;-78
2022/09/02 00:33:08;;;;;;;5.28;2.00;;;;;;;13.70;73.23;101386.84;1939421;29;20070;-77
2022/09/02 00:34:05;;;;;;;2.35;2.00;;;;;;;13.67;75.44;101389.59;1939081;29;20063;-77
2022/09/02 00:35:04;;;;;;;5.20;2.13;;;;;;;13.63;73.81;101384.53;1939308;29;20098;-77
2022/09/02 00:36:03;;;;;;;3.47;1.88;;;;;;;13.67;72.95;101386.97;1939019;29;20035;-77
2022/09/02 00:37:00;;;;;;;3.33;1.85;;;;;;;13.65;75.52;101387.91;1939339;29;20036;-78
2022/09/02 00:37:58;;;;;;;4.05;2.03;;;;;;;13.64;73.31;101390.59;1939057;29;20095;-77
2022/09/02 00:38:56;;;;;;;3.70;1.90;;;;;;;13.64;73.64;101380.13;1939253;29;20349;-77
2022/09/02 00:39:54;;;;;;;3.35;2.00;;;;;;;13.63;73.65;101383.66;1939245;29;20128;-76
2022/09/02 00:40:52;;;;;;;3.55;2.10;;;;;;;13.61;74.08;101388.97;1939148;29;20360;-76
2022/09/02 00:41:50;;;;;;;2.47;2.03;;;;;;;13.59;76.49;101382.94;1939259;29;20027;-77
2022/09/02 00:42:49;;;;;;;3.72;1.95;;;;;;;13.62;74.21;101385.44;1938966;29;20035;-76
2022/09/02 00:43:58;;;;;;;3.50;2.10;;;;;;;13.60;74.43;101386.44;1939231;29;20038;-77
2022/09/02 00:44:56;;;;;;;4.88;2.13;;;;;;;13.60;73.78;101384.66;1939090;29;20283;-78
2022/09/02 00:45:54;;;;;;;4.30;2.22;;;;;;;13.59;75.06;101384.72;1938779;29;20040;-76
2022/09/02 00:46:52;;;;;;;3.95;1.92;;;;;;;13.56;75.07;101387.50;1938683;29;20463;-77
2022/09/02 00:47:50;;;;;;;2.47;1.77;;;;;;;13.56;74.17;101385.72;1939205;29;20028;-77
2022/09/02 00:49:14;;;;;;;1.80;1.70;;;;;;;13.59;75.02;101382.94;1939197;29;20032;-77
2022/09/02 00:50:16;;;;;;;2.35;1.80;;;;;;;13.56;75.49;101387.50;1939152;29;20387;-77
2022/09/02 00:51:15;;;;;;;4.38;2.13;;;;;;;13.56;74.06;101390.97;1939125;29;20470;-77
2022/09/02 00:52:22;;;;;;;2.85;2.00;;;;;;;13.57;75.15;101384.81;1939290;29;20036;-77
2022/09/02 00:53:20;;;;;;;3.75;2.05;;;;;;;13.51;75.87;101380.69;1938970;29;20073;-77
2022/09/02 00:54:21;;;;;;;2.55;2.20;;;;;;;13.54;74.00;101384.94;1939052;29;20527;-77
2022/09/02 00:55:28;;;;;;;3.25;2.15;;;;;;;13.52;74.95;101381.56;1939173;29;20039;-77
2022/09/02 00:56:30;;;;;;;1.92;1.75;;;;;;;13.51;74.37;101385.06;1946094;29;20035;-77
2022/09/02 00:57:38;;;;;;;4.38;2.28;;;;;;;13.52;74.38;101385.00;1946254;28;20126;-77
2022/09/02 00:58:37;;;;;;;3.63;1.92;;;;;;;13.48;75.13;101385.22;1939157;29;20036;-77
2022/09/02 00:59:52;;;;;;;3.38;2.10;;;;;;;13.50;76.08;101378.13;1939179;29;20036;-78
2022/09/02 01:00:56;;;;;;;3.03;2.10;;;;;;;13.47;74.27;101373.84;1939035;29;20364;-78
2022/09/02 01:01:53;;;;;;;7.07;2.20;;;;;;;13.44;74.90;101381.03;1939068;29;20107;-76
2022/09/02 01:03:01;;;;;;;1.85;1.70;;;;;;;13.39;77.10;101376.00;1939177;29;20340;-77
2022/09/02 01:03:59;;;;;;;4.15;2.00;;;;;;;13.38;76.77;101374.28;1938925;29;20083;-76
2022/09/02 01:04:59;;;;;;;3.22;1.90;;;;;;;13.37;75.15;101373.44;1939155;29;20091;-77
2022/09/02 01:05:59;;;;;;;5.78;1.90;;;;;;;13.37;74.66;101367.31;1939111;29;20039;-77
2022/09/02 01:06:57;;;;;;;;;;;;;;;13.31;76.94;101376.31;1939601;29;20031;-78
2022/09/02 01:07:57;;;;;;;6.63;2.20;;;;;;;13.29;75.99;101365.06;1938944;29;19918;-76
2022/09/02 01:09:06;;;;;;;3.50;2.10;;;;;;;13.29;75.33;101370.31;1940550;29;20082;-77
2022/09/02 01:10:10;;;;;;;1.90;1.80;;;;;;;13.27;75.08;101366.91;1940445;29;20031;-76
2022/09/02 01:11:07;;;;;;;11.30;2.30;;;;;;;13.29;77.22;101369.44;1940606;29;20059;-76
2022/09/02 01:12:05;;;;;;;2.38;1.80;;;;;;;13.27;77.39;101361.66;1940475;29;20031;-76
2022/09/02 01:13:09;;;;;;;5.03;2.00;;;;;;;13.29;75.18;101369.44;1940408;29;20043;-76
2022/09/02 01:14:08;;;;;;;3.15;2.08;;;;;;;13.29;74.63;101359.84;1940342;29;20364;-77
2022/09/02 01:15:09;;;;;;;4.80;1.88;;;;;;;13.27;76.47;101361.66;1940531;29;20034;-78
2022/09/02 01:16:19;;;;;;;6.93;2.10;;;;;;;13.26;75.69;101367.81;1939863;29;20023;-79
2022/09/02 01:17:18;;;;;;;2.55;2.17;;;;;;;13.24;76.60;101362.66;1940044;29;20035;-77
2022/09/02 01:18:22;;;;;;;3.75;2.10;;;;;;;13.25;75.60;101359.09;1940174;29;20039;-78
2022/09/02 01:19:35;;;;;;;3.38;2.22;;;;;;;13.25;77.17;101359.09;1940448;29;20106;-76
2022/09/02 01:20:33;;;;;;;2.28;2.03;;;;;;;13.27;75.54;101359.03;1940386;29;20123;-78
2022/09/02 01:21:31;;;;;;;3.08;2.10;;;;;;;13.21;78.56;101367.19;1939829;29;20078;-78
2022/09/02 01:22:32;;;;;;;3.83;2.20;;;;;;;13.20;76.25;101361.09;1932303;29;20467;-78
2022/09/02 01:23:31;;;;;;;2.95;2.10;;;;;;;13.20;77.12;101360.22;1932422;29;20040;-77
2022/09/02 01:24:33;;;;;;;3.63;2.10;;;;;;;13.19;76.71;101364.63;1939733;29;20099;-78
2022/09/02 01:25:34;;;;;;;3.25;2.30;;;;;;;13.18;77.29;101362.09;1939844;29;20044;-77
2022/09/02 01:26:32;;;;;;;3.58;2.00;;;;;;;13.17;75.78;101358.59;1940293;29;20427;-77
2022/09/02 01:27:30;;;;;;;2.80;1.92;;;;;;;13.18;76.25;101367.31;1940402;29;20525;-78
2022/09/02 01:28:27;;;;;;;5.18;2.20;;;;;;;13.13;77.78;101360.53;1940249;29;20035;-76
2022/09/02 01:29:27;;;;;;;5.13;2.20;;;;;;;13.13;76.12;101364.91;1940387;29;20031;-77
2022/09/02 01:30:25;;;;;;;4.40;2.22;;;;;;;13.08;78.80;101367.75;1940265;29;20036;-78
2022/09/02 01:31:23;;;;;;;5.50;2.20;;;;;;;13.09;76.22;101368.59;1940358;29;20046;-78
2022/09/02 01:32:21;;;;;;;6.55;2.30;;;;;;;13.11;75.97;101357.09;1932373;29;20028;-78
2022/09/02 01:33:21;;;;;;;4.00;2.03;;;;;;;13.10;75.83;101358.03;1932477;29;20043;-77
2022/09/02 01:34:20;;;;;;;3.33;2.10;;;;;;;13.06;77.14;101363.47;1939782;29;20035;-77
2022/09/02 01:35:17;;;;;;;8.05;2.20;;;;;;;13.04;77.16;101360.94;1940241;29;20028;-77
2022/09/02 01:36:15;;;;;;;4.05;2.10;;;;;;;13.07;76.17;101360.78;1940085;29;20025;-75
2022/09/02 01:37:13;;;;;;;3.67;2.05;;;;;;;13.06;76.46;101361.72;1940262;29;20494;-76
2022/09/02 01:38:12;;;;;;;5.70;2.53;;;;;;;13.04;77.88;101357.47;1940063;29;20046;-78
2022/09/02 01:39:12;;;;;;;3.63;2.00;;;;;;;13.05;77.02;101362.66;1940005;29;20356;-77
2022/09/02 01:40:15;;;;;;;5.30;2.30;;;;;;;13.05;76.18;101357.41;1940259;29;20398;-79
2022/09/02 01:41:13;;;;;;;4.13;2.25;;;;;;;13.02;77.84;101362.78;1940187;29;20031;-78
2022/09/02 01:42:11;;;;;;;3.45;2.17;;;;;;;13.05;76.28;101357.41;1940227;29;20621;-77
2022/09/02 01:43:17;;;;;;;3.25;2.28;;;;;;;13.04;76.47;101360.94;1947006;29;20039;-77
2022/09/02 01:44:16;;;;;;;4.43;1.95;;;;;;;13.02;76.12;101352.28;1947107;29;20038;-76
2022/09/02 01:45:14;;;;;;;2.63;2.20;;;;;;;12.97;78.51;101354.28;1940068;29;20028;-78
2022/09/02 01:46:11;;;;;;;5.93;2.33;;;;;;;13.00;76.73;101354.13;1947208;29;20041;-77
2022/09/02 01:47:16;;;;;;;3.28;2.30;;;;;;;12.98;78.00;101351.59;1947168;29;20031;-77
2022/09/02 01:48:15;;;;;;;4.50;2.30;;;;;;;12.97;77.09;101349.03;1940072;29;20046;-78
2022/09/02 01:49:12;;;;;;;4.65;2.17;;;;;;;12.88;78.88;101353.78;1940166;29;20048;-76
2022/09/02 01:50:10;;;;;;;4.63;2.38;;;;;;;12.91;77.59;101354.53;1940100;29;20416;-78
2022/09/02 01:51:07;;;;;;;2.20;2.00;;;;;;;12.84;79.78;101348.72;1939967;29;20036;-78
2022/09/02 01:52:06;;;;;;;2.55;1.98;;;;;;;12.86;77.91;101349.50;1940099;29;20400;-77
2022/09/02 01:53:03;;;;;;;4.50;2.03;;;;;;;12.85;78.20;101346.03;1944548;29;20481;-77
2022/09/02 01:54:01;;;;;;;3.83;2.30;;;;;;;12.83;79.49;101353.09;1944427;28;20074;-77
2022/09/02 01:54:58;;;;;;;5.78;2.10;;;;;;;12.82;78.59;101354.03;1939693;29;20363;-77
2022/09/02 01:55:56;;;;;;;3.38;2.10;;;;;;;12.83;77.75;101347.88;1939942;29;20035;-77
2022/09/02 01:56:54;;;;;;;2.63;2.20;;;;;;;12.83;77.41;101347.03;1940003;29;20036;-77
2022/09/02 01:57:51;;;;;;;3.58;2.30;;;;;;;12.81;77.62;101343.63;1939616;29;20035;-77
2022/09/02 01:58:49;;;;;;;7.55;2.50;;;;;;;12.77;78.49;101348.16;1939959;29;20406;-78
2022/09/02 01:59:46;;;;;;;2.78;2.30;;;;;;;12.74;79.31;101343.03;1939589;29;20050;-77
2022/09/02 02:00:45;;;;;;;4.50;2.20;;;;;;;12.76;78.66;101349.03;1939517;29;20049;-77
2022/09/02 02:01:44;;;;;;;6.47;2.35;;;;;;;12.79;78.07;101346.28;1931761;29;20131;-78
2022/09/02 02:02:41;;;;;;;4.32;2.30;;;;;;;12.77;78.59;101342.91;1932084;29;20605;-77
2022/09/02 02:03:42;;;;;;;2.80;2.42;;;;;;;12.70;81.35;101349.31;1939125;29;20039;-78
2022/09/02 02:04:39;;;;;;;;;;;;;;;12.66;79.99;101345.16;1940572;29;20420;-78
2022/09/02 02:05:37;;;;;;;6.50;2.58;;;;;;;12.66;79.20;101351.22;1939683;29;19914;-77
2022/09/02 02:06:35;;;;;;;2.53;2.08;;;;;;;12.67;78.69;101352.06;1939979;29;20035;-77
2022/09/02 02:07:32;;;;;;;4.80;2.50;;;;;;;12.68;79.68;101349.41;1938909;29;20117;-76
2022/09/02 02:08:29;;;;;;;5.93;2.63;;;;;;;12.66;80.80;101345.97;1939520;29;20043;-76
2022/09/02 02:09:27;;;;;;;3.30;2.30;;;;;;;12.69;79.77;101350.25;1939375;29;20035;-77
2022/09/02 02:10:25;;;;;;;9.35;2.50;;;;;;;12.70;78.79;101344.91;1939660;29;20329;-76
2022/09/02 02:11:24;;;;;;;2.95;2.20;;;;;;;12.73;78.89;101349.19;1939870;29;20023;-76
2022/09/02 02:12:22;;;;;;;2.40;2.25;;;;;;;12.73;78.27;101349.19;1939628;29;20042;-77
2022/09/02 02:13:19;;;;;;;2.55;2.33;;;;;;;12.73;78.26;101346.59;1939414;29;20367;-78
2022/09/02 02:14:17;;;;;;;3.75;2.50;;;;;;;12.69;81.58;101345.03;1939207;29;20374;-77
2022/09/02 02:15:19;;;;;;;3.42;2.33;;;;;;;12.69;79.14;101351.09;1939974;29;20482;-77
2022/09/02 02:16:16;;;;;;;2.20;2.00;;;;;;;12.68;78.51;101353.78;1939395;29;20122;-77
2022/09/02 02:17:14;;;;;;;4.05;2.22;;;;;;;12.69;78.56;101350.25;1939531;29;20032;-76
2022/09/02 02:18:11;;;;;;;7.25;2.50;;;;;;;12.69;78.82;101350.25;1938991;29;20044;-77
2022/09/02 02:19:09;;;;;;;4.00;2.17;;;;;;;12.69;80.50;101350.25;1939904;29;20098;-77
2022/09/02 02:20:10;;;;;;;8.02;2.50;;;;;;;12.66;80.54;101345.16;1938771;29;20040;-77
2022/09/02 02:21:08;;;;;;;2.97;2.13;;;;;;;12.69;79.42;101345.03;1939937;29;20443;-78
2022/09/02 02:22:05;;;;;;;2.60;2.00;;;;;;;12.69;78.89;101347.63;1939822;29;20034;-77
2022/09/02 02:23:05;;;;;;;5.72;2.50;;;;;;;12.69;79.82;101356.31;1939871;29;20075;-77
2022/09/02 02:24:04;;;;;;;5.95;2.90;;;;;;;12.72;79.29;101350.09;1939919;29;20031;-77
2022/09/02 02:25:05;;;;;;;2.85;2.25;;;;;;;12.71;80.67;101348.41;1939810;29;20035;-76
2022/09/02 02:26:02;;;;;;;3.85;2.60;;;;;;;12.75;79.29;101345.59;1939770;29;20031;-76
2022/09/02 02:27:00;;;;;;;3.83;2.45;;;;;;;12.77;78.45;101342.91;1939944;29;20340;-76
2022/09/02 02:27:58;;;;;;;8.95;2.60;;;;;;;12.77;80.47;101342.91;1939763;29;20303;-76
2022/09/02 02:28:55;;;;;;;4.55;2.28;;;;;;;12.79;79.09;101346.28;1939549;29;20028;-77
2022/09/02 02:29:52;;;;;;;3.03;2.10;;;;;;;12.80;79.97;101342.75;1939407;29;20102;-77
2022/09/02 02:30:50;;;;;;;4.85;2.28;;;;;;;12.80;78.80;101348.00;1939430;29;20094;-77
2022/09/02 02:31:48;;;;;;;3.20;2.40;;;;;;;12.76;80.54;101341.19;1939800;29;20087;-76
2022/09/02 02:32:46;;;;;;;4.20;2.30;;;;;;;12.77;80.43;101344.66;1939505;29;20034;-77
2022/09/02 02:33:44;;;;;;;3.65;2.42;;;;;;;12.77;79.77;101347.28;1940039;29;20119;-77
2022/09/02 02:34:42;;;;;;;3.50;2.47;;;;;;;12.79;78.69;101340.22;1939687;29;20040;-76
2022/09/02 02:35:41;;;;;;;2.30;2.10;;;;;;;12.78;79.43;101347.22;1939943;29;20074;-79
2022/09/02 02:36:40;;;;;;;5.07;2.35;;;;;;;12.79;79.04;101346.28;1939682;29;20415;-77
2022/09/02 02:37:37;;;;;;;2.53;2.33;;;;;;;12.78;79.88;101339.38;1939342;29;20031;-78
2022/09/02 02:38:37;;;;;;;4.57;2.45;;;;;;;12.80;80.49;101341.91;1939565;29;20543;-77
2022/09/02 02:39:34;;;;;;;3.30;2.40;;;;;;;12.80;79.98;101340.13;1939615;29;20031;-77
2022/09/02 02:40:31;;;;;;;3.95;2.38;;;;;;;12.81;79.91;101341.84;1939662;29;20036;-77
2022/09/02 02:41:31;;;;;;;3.80;2.42;;;;;;;12.82;79.24;101338.31;1939843;29;20051;-77
2022/09/02 02:42:28;;;;;;;7.80;2.30;;;;;;;12.83;80.62;101336.56;1939846;29;20039;-76
2022/09/02 02:43:26;;;;;;;4.90;2.50;;;;;;;12.82;81.67;101335.69;1939547;29;20042;-77
2022/09/02 02:44:24;;;;;;;6.18;2.47;;;;;;;12.87;80.78;101338.94;1939918;29;20043;-76
2022/09/02 02:45:22;;;;;;;4.22;2.40;;;;;;;12.94;78.70;101330.84;1939724;29;20127;-77
2022/09/02 02:46:20;;;;;;;6.25;2.55;;;;;;;12.93;79.55;101331.75;1939886;29;20441;-77
2022/09/02 02:47:17;;;;;;;4.22;2.20;;;;;;;12.91;79.35;101338.81;1939695;29;20074;-78
2022/09/02 02:48:15;;;;;;;5.35;2.25;;;;;;;12.90;79.82;101326.66;1939893;29;20064;-76
2022/09/02 02:49:13;;;;;;;2.88;2.20;;;;;;;12.90;79.64;101340.56;1939749;29;20352;-77
2022/09/02 02:50:14;;;;;;;3.50;2.22;;;;;;;12.92;78.97;101335.28;1939808;29;20042;-77
2022/09/02 02:51:12;;;;;;;5.35;2.67;;;;;;;12.91;79.22;101336.19;1939636;29;20432;-77
2022/09/02 02:52:11;;;;;;;4.35;2.33;;;;;;;12.93;79.73;101342.25;1939665;29;20032;-77
2022/09/02 02:53:11;;;;;;;3.72;2.35;;;;;;;12.90;79.10;101332.72;1939825;29;20061;-77
2022/09/02 02:54:13;;;;;;;2.45;2.25;;;;;;;12.92;78.83;101330.03;1939654;29;20491;-77
2022/09/02 02:55:13;;;;;;;3.90;2.25;;;;;;;12.88;80.35;101332.81;1939865;29;20035;-77
2022/09/02 02:56:10;;;;;;;3.00;2.22;;;;;;;12.88;79.01;101335.44;1939629;29;20448;-77
2022/09/02 02:57:09;;;;;;;3.90;2.22;;;;;;;12.90;79.14;101337.13;1939647;29;20052;-77
2022/09/02 02:58:06;;;;;;;3.13;2.38;;;;;;;12.88;80.85;101335.44;1939447;29;20090;-77
2022/09/02 02:59:04;;;;;;;6.50;2.65;;;;;;;12.92;78.86;101330.91;1939704;29;20114;-77
2022/09/02 03:00:07;;;;;;;4.30;2.35;;;;;;;12.94;79.42;101330.84;1939607;29;20042;-77
2022/09/02 03:01:06;;;;;;;6.35;2.40;;;;;;;12.94;78.52;101328.22;1939637;29;20034;-76
2022/09/02 03:02:06;;;;;;;4.95;2.50;;;;;;;12.87;79.94;101328.47;1939532;29;20045;-77
2022/09/02 03:03:08;;;;;;;4.20;2.67;;;;;;;12.91;79.03;101329.19;1939660;29;20031;-78
2022/09/02 03:04:05;;;;;;;3.85;2.33;;;;;;;12.92;78.65;101323.03;1939607;29;20623;-78
2022/09/02 03:05:06;;;;;;;5.60;2.70;;;;;;;12.93;78.66;101321.28;1939612;29;20024;-77
2022/09/02 03:06:04;;;;;;;2.70;2.50;;;;;;;12.91;78.68;101328.34;1939654;29;20032;-77
2022/09/02 03:07:03;;;;;;;2.50;2.28;;;;;;;12.90;79.43;101322.25;1939544;29;20027;-77
2022/09/02 03:08:02;;;;;;;3.13;2.50;;;;;;;12.92;78.78;101323.03;1939254;29;20052;-79
2022/09/02 03:08:59;;;;;;;7.72;2.40;;;;;;;12.91;78.78;101323.97;1939716;29;20440;-77
2022/09/02 03:09:57;;;;;;;3.45;2.30;;;;;;;12.87;80.02;101318.00;1939575;29;20041;-77
2022/09/02 03:10:55;;;;;;;3.28;2.45;;;;;;;12.86;79.32;101318.91;1939607;29;20038;-78
2022/09/02 03:11:52;;;;;;;4.32;2.50;;;;;;;12.84;80.71;101317.28;1939630;29;20121;-78
2022/09/02 03:12:50;;;;;;;4.07;2.40;;;;;;;12.84;79.35;101328.63;1939544;29;20396;-77
2022/09/02 03:13:51;;;;;;;2.80;2.17;;;;;;;12.87;79.69;101327.66;1939550;29;20107;-77
2022/09/02 03:14:49;;;;;;;3.63;2.30;;;;;;;12.86;79.23;101321.53;1939659;29;20039;-76
2022/09/02 03:15:48;;;;;;;7.50;2.50;;;;;;;12.87;78.76;101317.16;1939659;29;20374;-75
2022/09/02 03:16:45;;;;;;;7.22;2.60;;;;;;;12.90;79.05;101321.41;1939383;29;20038;-77
2022/09/02 03:17:45;;;;;;;4.50;2.28;;;;;;;12.86;79.28;101318.06;1939214;29;20102;-77
2022/09/02 03:18:43;;;;;;;5.10;2.40;;;;;;;12.86;79.35;101321.53;1939156;29;20118;-77
2022/09/02 03:19:40;;;;;;;4.43;2.70;;;;;;;12.85;79.26;101319.84;1939354;29;20102;-77
2022/09/02 03:20:39;;;;;;;8.23;2.78;;;;;;;12.84;80.05;101322.53;1939040;29;20090;-77
2022/09/02 03:21:37;;;;;;;4.30;2.65;;;;;;;12.73;82.49;101323.84;1939608;29;20046;-75
2022/09/02 03:22:37;;;;;;;4.97;2.80;;;;;;;12.78;79.59;101326.28;1939308;29;20068;-76
2022/09/02 03:23:35;;;;;;;;;;;;;;;12.73;80.39;101316.00;1940151;29;20501;-76
2022/09/02 03:24:33;;;;;;;8.93;3.00;;;;;;;12.75;80.00;101322.03;1939545;29;20018;-78
2022/09/02 03:25:34;;;;;;;4.65;2.83;;;;;;;12.78;79.41;101323.66;1939440;29;20066;-77
2022/09/02 03:26:32;;;;;;;5.43;2.30;;;;;;;12.78;79.34;101321.03;1939519;29;20102;-78
2022/09/02 03:27:29;;;;;;;7.50;2.83;;;;;;;12.79;79.25;101324.50;1939438;29;20059;-76
2022/09/02 03:28:27;;;;;;;5.85;2.75;;;;;;;12.79;79.20;101325.34;1939423;29;20098;-76
2022/09/02 03:29:25;;;;;;;4.70;2.63;;;;;;;12.77;79.00;101319.34;1939619;29;20054;-77
2022/09/02 03:30:27;;;;;;;3.47;2.70;;;;;;;12.72;79.39;101318.66;1939531;29;20051;-76
2022/09/02 03:31:26;;;;;;;5.45;2.90;;;;;;;12.72;79.03;101321.28;1938870;29;20439;-77
2022/09/02 03:32:24;;;;;;;5.30;2.95;;;;;;;12.69;79.17;101314.44;1939017;29;20068;-76
2022/09/02 03:33:21;;;;;;;7.70;2.78;;;;;;;12.68;80.50;101317.09;1939245;29;20040;-79
2022/09/02 03:34:18;;;;;;;7.78;2.90;;;;;;;12.69;79.67;101318.84;1939515;29;20039;-77
2022/09/02 03:35:20;;;;;;;3.50;2.78;;;;;;;12.70;79.80;101317.91;1939378;29;20046;-77
2022/09/02 03:36:34;;;;;;;6.93;3.03;;;;;;;12.62;79.87;101313.84;1939444;29;20030;-77
2022/09/02 03:37:33;;;;;;;7.85;3.33;;;;;;;12.58;80.45;101308.81;1939342;29;20039;-76
2022/09/02 03:38:30;;;;;;;4.47;3.05;;;;;;;12.54;81.42;101317.72;1939420;29;20040;-76
2022/09/02 03:39:28;;;;;;;5.60;3.00;;;;;;;12.52;80.91;101307.31;1939479;29;20045;-77
2022/09/02 03:40:27;;;;;;;4.32;3.20;;;;;;;12.48;81.64;101316.22;1939362;29;20507;-77
2022/09/02 03:41:24;;;;;;;5.30;2.80;;;;;;;12.46;82.15;101312.81;1938805;29;20363;-78
2022/09/02 03:42:22;;;;;;;4.43;2.92;;;;;;;12.48;80.62;101311.84;1938973;29;20063;-77
2022/09/02 03:43:19;;;;;;;4.82;2.97;;;;;;;12.42;82.34;101316.50;1938811;29;20055;-77
2022/09/02 03:44:16;;;;;;;6.10;3.30;;;;;;;12.43;80.80;101316.41;1939344;29;20129;-77
2022/09/02 03:45:16;;;;;;;4.50;3.28;;;;;;;12.44;80.44;101314.63;1939456;29;20115;-77
2022/09/02 03:46:14;;;;;;;9.32;3.85;;;;;;;12.38;82.54;101313.13;1939471;29;20092;-76
2022/09/02 03:47:13;;;;;;;4.07;3.10;;;;;;;12.40;80.75;101307.84;1939510;29;20392;-77
2022/09/02 03:48:13;;;;;;;5.85;3.33;;;;;;;12.38;81.36;101307.91;1939336;29;20137;-76
2022/09/02 03:49:10;;;;;;;5.65;3.20;;;;;;;12.35;81.04;101311.50;1939338;29;20039;-77
2022/09/02 03:50:10;;;;;;;4.63;3.17;;;;;;;12.36;81.20;101318.44;1939432;29;20384;-77
2022/09/02 03:51:08;;;;;;;;;;;;;;;12.29;82.21;101306.53;1939865;29;20087;-76
2022/09/02 03:52:05;;;;;;;6.60;3.20;;;;;;;12.26;83.45;101311.91;1939156;29;19914;-77
2022/09/02 03:53:04;;;;;;;7.28;3.33;;;;;;;12.29;81.18;101306.53;1938807;29;20458;-76
2022/09/02 03:54:02;;;;;;;5.55;3.63;;;;;;;12.30;80.95;101307.38;1938664;29;20094;-77
2022/09/02 03:55:00;;;;;;;5.18;3.50;;;;;;;12.29;83.81;101305.69;1938965;29;20491;-76
2022/09/02 03:56:05;;;;;;;7.03;3.90;;;;;;;12.29;81.36;101296.06;1938730;29;20035;-77
2022/09/02 03:57:03;;;;;;;6.72;4.10;;;;;;;12.29;80.58;101301.31;1938754;29;20497;-76
2022/09/02 03:58:00;;;;;;;5.25;3.72;;;;;;;12.27;82.25;101303.13;1938783;29;20024;-77
2022/09/02 03:58:59;;;;;;;5.88;3.45;;;;;;;12.25;82.84;101299.72;1939485;29;20027;-77
2022/09/02 03:59:56;;;;;;;6.97;3.78;;;;;;;12.24;81.69;101300.63;1939379;29;20023;-76
2022/09/02 04:00:54;;;;;;;7.25;3.80;;;;;;;12.28;81.26;101299.59;1939228;29;20058;-77
2022/09/02 04:01:51;;;;;;;9.40;3.90;;;;;;;12.25;80.96;101299.72;1939400;29;20078;-76
2022/09/02 04:02:51;;;;;;;5.60;3.85;;;;;;;12.23;82.92;101296.31;1939113;29;20498;-76
2022/09/02 04:03:49;;;;;;;8.95;3.65;;;;;;;12.24;83.40;101298.00;1939341;29;20039;-78
2022/09/02 04:04:47;;;;;;;7.97;4.05;;;;;;;12.28;81.17;101299.59;1938754;29;20074;-77
2022/09/02 04:05:49;;;;;;;10.57;3.75;;;;;;;12.29;81.25;101301.31;1938883;29;20043;-77
2022/09/02 04:06:46;;;;;;;9.77;4.28;;;;;;;12.26;82.65;101290.09;1939287;29;20472;-77
2022/09/02 04:07:44;;;;;;;7.47;4.15;;;;;;;12.25;82.51;101302.31;1939213;29;20044;-77
2022/09/02 04:08:45;;;;;;;7.72;3.83;;;;;;;12.27;80.87;101302.25;1939176;29;20039;-78
2022/09/02 04:09:42;;;;;;;8.63;4.05;;;;;;;12.26;80.85;101301.44;1939391;29;20129;-76
2022/09/02 04:10:40;;;;;;;6.38;4.00;;;;;;;12.26;81.78;101298.81;1939200;29;20051;-77
2022/09/02 04:11:41;;;;;;;10.63;3.92;;;;;;;12.23;81.23;101297.19;1938853;29;20046;-77
2022/09/02 04:12:39;;;;;;;7.63;3.70;;;;;;;12.20;82.65;101293.84;1938738;29;20043;-77
2022/09/02 04:13:36;;;;;;;6.78;4.70;;;;;;;12.24;81.60;101298.00;1938562;29;20428;-76
2022/09/02 04:14:33;;;;;;;6.03;3.85;;;;;;;12.22;82.01;101299.88;1938997;29;20063;-77
2022/09/02 04:15:31;;;;;;;6.50;4.63;;;;;;;12.22;82.12;101294.63;1939094;29;20440;-77
2022/09/02 04:16:28;;;;;;;10.02;4.40;;;;;;;12.20;82.20;101296.44;1939284;29;20157;-76
2022/09/02 04:17:26;;;;;;;6.13;4.28;;;;;;;12.17;84.00;101291.34;1938680;29;20123;-77
2022/09/02 04:18:23;;;;;;;6.25;4.15;;;;;;;12.19;81.35;101297.38;1938716;29;20028;-77
2022/09/02 04:19:20;;;;;;;10.25;4.13;;;;;;;12.19;81.88;101294.75;1939150;29;20078;-77
2022/09/02 04:20:18;;;;;;;7.10;4.28;;;;;;;12.18;81.58;101293.88;1939383;29;20404;-77
2022/09/02 04:21:15;;;;;;;6.97;4.00;;;;;;;12.18;82.67;101293.06;1938940;29;20471;-75
2022/09/02 04:22:13;;;;;;;8.48;4.25;;;;;;;12.16;81.82;101287.03;1938679;29;20408;-76
2022/09/02 04:23:10;;;;;;;7.90;4.65;;;;;;;12.14;82.56;101291.50;1938724;29;20036;-78
2022/09/02 04:24:10;;;;;;;8.93;4.30;;;;;;;12.16;82.17;101289.63;1939255;29;20036;-77
2022/09/02 04:25:08;;;;;;;9.30;4.75;;;;;;;12.16;81.56;101294.88;1939076;29;20064;-77
2022/09/02 04:26:13;;;;;;;6.68;4.07;;;;;;;12.16;82.04;101285.28;1939174;29;20500;-77
2022/09/02 04:27:10;;;;;;;7.72;4.25;;;;;;;12.13;82.22;101290.63;1938798;29;20486;-78
2022/09/02 04:28:09;;;;;;;8.60;4.22;;;;;;;12.16;82.70;101292.25;1938614;29;20054;-77
2022/09/02 04:29:08;;;;;;;7.70;4.45;;;;;;;12.15;82.25;101288.78;1939153;29;20444;-78
2022/09/02 04:30:08;;;;;;;6.47;4.45;;;;;;;12.14;82.61;101287.09;1939062;29;20032;-77
2022/09/02 04:31:08;;;;;;;;;;;;;;;12.09;84.75;101289.06;1939660;29;20048;-76
2022/09/02 04:32:05;;;;;;;9.73;4.82;;;;;;;12.09;82.17;101289.91;1939141;29;19925;-76
2022/09/02 04:33:03;;;;;;;11.05;5.00;;;;;;;12.08;84.87;101287.38;1938960;29;20047;-76
2022/09/02 04:34:00;;;;;;;14.57;4.63;;;;;;;12.14;82.61;101288.88;1939238;29;20106;-76
2022/09/02 04:34:58;;;;;;;8.07;4.90;;;;;;;12.16;82.31;101290.50;1939195;29;20055;-77
2022/09/02 04:35:55;;;;;;;11.82;4.78;;;;;;;12.19;82.83;101289.53;1939171;29;20103;-76